createdAt,value
2022-10-29T00:01:44.475Z,61.62
2022-10-29T00:04:12.421Z,61.64
2022-10-29T00:06:40.321Z,61.24
2022-10-29T00:09:08.439Z,61.03
2022-10-29T00:11:36.356Z,60.89
2022-10-29T00:14:04.171Z,60.86
2022-10-29T00:16:37.900Z,61.53
2022-10-29T00:19:07.330Z,61.86
2022-10-29T00:21:35.579Z,61.81
2022-10-29T00:24:03.471Z,62.78
2022-10-29T00:26:31.421Z,62.74
2022-10-29T00:28:59.303Z,62.78
2022-10-29T00:31:27.220Z,62.18
2022-10-29T00:33:56.358Z,62.34
2022-10-29T00:36:26.837Z,62.21
2022-10-29T00:38:54.757Z,62.01
2022-10-29T00:41:26.564Z,62.11
2022-10-29T00:44:26.358Z,61.90
2022-10-29T00:46:56.942Z,62.11
2022-10-29T00:49:25.579Z,62.18
2022-10-29T00:51:54.780Z,62.40
2022-10-29T00:54:22.620Z,62.49
2022-10-29T00:56:52.290Z,62.63
2022-10-29T00:59:20.501Z,62.63
2022-10-29T01:01:49.669Z,63.25
2022-10-29T01:04:18.434Z,63.74
2022-10-29T01:06:47.091Z,63.36
2022-10-29T01:09:16.481Z,63.10
2022-10-29T01:11:53.042Z,63.08
2022-10-29T01:14:28.586Z,62.72
2022-10-29T01:17:01.432Z,62.87
2022-10-29T01:19:47.337Z,63.22
2022-10-29T01:22:17.533Z,62.81
2022-10-29T01:25:01.713Z,62.90
2022-10-29T01:27:49.235Z,63.14
2022-10-29T01:30:22.014Z,62.35
2022-10-29T01:33:10.422Z,62.61
2022-10-29T01:35:46.652Z,62.94
2022-10-29T01:38:23.522Z,63.43
2022-10-29T01:40:56.731Z,63.83
2022-10-29T01:43:27.023Z,63.61
2022-10-29T01:45:59.635Z,63.55
2022-10-29T01:48:33.370Z,64.22
2022-10-29T01:51:05.202Z,64.37
2022-10-29T01:53:36.208Z,64.52
2022-10-29T01:56:04.316Z,64.60
2022-10-29T01:58:32.966Z,64.21
2022-10-29T02:01:08.237Z,64.63
2022-10-29T02:03:51.222Z,65.05
2022-10-29T02:06:29.338Z,65.25
2022-10-29T02:09:02.837Z,65.08
2022-10-29T02:11:35.659Z,65.25
2022-10-29T02:14:05.152Z,64.87
2022-10-29T02:16:34.510Z,64.75
2022-10-29T02:19:03.834Z,64.94
2022-10-29T02:21:31.697Z,64.94
2022-10-29T02:23:59.570Z,66.02
2022-10-29T02:26:27.443Z,66.68
2022-10-29T02:28:55.264Z,67.21
2022-10-29T02:31:23.180Z,66.85
2022-10-29T02:33:51.013Z,66.75
2022-10-29T02:36:20.310Z,66.42
2022-10-29T02:38:48.156Z,65.89
2022-10-29T02:41:16.068Z,67.08
2022-10-29T02:43:44.016Z,66.95
2022-10-29T02:46:13.628Z,67.44
2022-10-29T02:48:41.535Z,66.87
2022-10-29T02:51:09.465Z,66.91
2022-10-29T02:53:38.944Z,67.57
2022-10-29T02:56:07.976Z,67.37
2022-10-29T02:58:36.228Z,67.33
2022-10-29T03:01:04.557Z,67.38
2022-10-29T03:03:32.404Z,68.74
2022-10-29T03:06:00.296Z,68.95
2022-10-29T03:08:28.325Z,68.97
2022-10-29T03:10:57.560Z,70.14
2022-10-29T03:13:25.553Z,69.39
2022-10-29T03:15:53.380Z,69.63
2022-10-29T03:18:21.208Z,69.13
2022-10-29T03:20:49.099Z,69.02
2022-10-29T03:23:16.956Z,71.31
2022-10-29T03:25:44.889Z,71.89
2022-10-29T03:28:14.115Z,72.11
2022-10-29T03:30:42.001Z,71.33
2022-10-29T03:33:09.918Z,70.00
2022-10-29T03:35:37.829Z,69.06
2022-10-29T03:38:05.784Z,68.35
2022-10-29T03:40:33.604Z,68.66
2022-10-29T03:43:01.674Z,68.83
2022-10-29T03:45:30.844Z,69.30
2022-10-29T03:47:58.918Z,69.90
2022-10-29T03:50:27.059Z,69.30
2022-10-29T03:52:54.941Z,68.73
2022-10-29T03:55:22.812Z,68.75
2022-10-29T03:57:50.777Z,68.79
2022-10-29T04:00:18.745Z,68.28
2022-10-29T04:02:48.230Z,68.88
2022-10-29T04:05:16.251Z,69.92
2022-10-29T04:07:44.189Z,70.46
2022-10-29T04:10:12.229Z,70.82
2022-10-29T04:12:40.043Z,69.34
2022-10-29T04:15:08.735Z,68.36
2022-10-29T04:17:36.589Z,68.30
2022-10-29T04:20:13.795Z,68.47
2022-10-29T04:28:45.395Z,68.98
2022-10-29T04:31:13.855Z,68.65
2022-10-29T04:33:41.710Z,68.84
2022-10-29T04:36:11.177Z,68.51
2022-10-29T04:38:39.156Z,68.69
2022-10-29T04:41:07.069Z,68.60
2022-10-29T04:43:34.943Z,68.53
2022-10-29T04:46:03.025Z,68.64
2022-10-29T04:48:30.946Z,68.94
2022-10-29T04:50:58.738Z,68.88
2022-10-29T04:53:27.921Z,68.93
2022-10-29T04:56:01.310Z,68.82
2022-10-29T04:58:29.539Z,68.95
2022-10-29T05:01:02.942Z,69.09
2022-10-29T05:03:30.970Z,68.89
2022-10-29T05:05:58.869Z,68.65
2022-10-29T05:08:28.091Z,68.50
2022-10-29T05:10:56.054Z,67.97
2022-10-29T05:13:23.995Z,67.41
2022-10-29T05:15:53.538Z,67.61
2022-10-29T05:18:21.675Z,66.70
2022-10-29T05:20:49.545Z,66.70
2022-10-29T05:23:17.310Z,66.69
2022-10-29T05:25:49.092Z,66.83
2022-10-29T05:28:19.362Z,66.54
2022-10-29T05:30:47.679Z,66.58
2022-10-29T05:33:16.938Z,66.10
2022-10-29T05:35:45.128Z,65.99
2022-10-29T05:38:13.923Z,66.22
2022-10-29T05:40:42.775Z,65.72
2022-10-29T05:43:12.051Z,66.14
2022-10-29T05:45:39.925Z,65.77
2022-10-29T05:48:08.116Z,65.78
2022-10-29T05:50:36.052Z,65.76
2022-10-29T05:53:05.611Z,65.92
2022-10-29T05:55:34.937Z,65.97
2022-10-29T05:58:04.045Z,65.78
2022-10-29T06:00:35.151Z,65.99
2022-10-29T06:03:03.073Z,65.42
2022-10-29T06:05:31.126Z,65.30
2022-10-29T06:08:00.763Z,65.16
2022-10-29T06:10:30.658Z,66.19
2022-10-29T06:12:58.480Z,66.72
2022-10-29T06:15:26.450Z,66.16
2022-10-29T06:17:56.098Z,66.12
2022-10-29T06:20:24.148Z,66.52
2022-10-29T06:22:58.095Z,66.54
2022-10-29T06:25:26.585Z,66.58
2022-10-29T06:28:01.963Z,66.98
2022-10-29T06:30:30.458Z,66.73
2022-10-29T06:32:59.991Z,66.84
2022-10-29T06:35:28.384Z,66.70
2022-10-29T06:37:56.659Z,66.71
2022-10-29T06:40:24.770Z,66.56
2022-10-29T06:42:59.963Z,66.34
2022-10-29T06:45:28.086Z,66.09
2022-10-29T06:47:56.135Z,66.07
2022-10-29T06:50:25.987Z,65.31
2022-10-29T06:52:58.571Z,64.75
2022-10-29T06:55:27.139Z,64.75
2022-10-29T06:57:58.903Z,64.65
2022-10-29T07:00:26.809Z,64.33
2022-10-29T07:02:55.144Z,64.03
2022-10-29T07:05:23.588Z,63.92
2022-10-29T07:07:56.055Z,63.69
2022-10-29T07:10:24.464Z,63.48
2022-10-29T07:12:52.269Z,63.30
2022-10-29T07:15:23.012Z,63.46
2022-10-29T07:17:59.348Z,63.54
2022-10-29T07:20:27.732Z,62.63
2022-10-29T07:22:57.576Z,62.51
2022-10-29T07:25:25.638Z,62.20
2022-10-29T07:27:53.694Z,62.30
2022-10-29T07:30:22.578Z,62.63
2022-10-29T07:32:50.453Z,62.04
2022-10-29T07:35:18.414Z,62.28
2022-10-29T07:37:46.338Z,61.80
2022-10-29T07:40:15.808Z,61.49
2022-10-29T07:42:43.657Z,61.30
2022-10-29T07:45:12.011Z,61.55
2022-10-29T07:47:39.979Z,61.38
2022-10-29T07:50:08.942Z,60.63
2022-10-29T07:52:36.812Z,60.74
2022-10-29T07:55:04.781Z,60.70
2022-10-29T07:57:34.011Z,59.50
2022-10-29T08:00:02.192Z,58.87
2022-10-29T08:02:40.018Z,58.09
2022-10-29T08:05:08.731Z,57.50
2022-10-29T08:07:36.593Z,57.80
2022-10-29T08:10:04.497Z,56.69
2022-10-29T08:12:33.920Z,56.30
2022-10-29T08:15:01.805Z,55.46
2022-10-29T08:17:30.486Z,54.89
2022-10-29T08:19:58.569Z,54.20
2022-10-29T08:22:26.434Z,54.11
2022-10-29T08:24:54.318Z,54.28
2022-10-29T08:27:22.193Z,54.48
2022-10-29T08:29:51.432Z,55.09
2022-10-29T08:32:19.309Z,54.96
2022-10-29T08:35:07.161Z,55.00
2022-10-29T08:37:35.063Z,55.49
2022-10-29T08:40:02.877Z,54.96
2022-10-29T08:42:43.755Z,55.06
2022-10-29T08:45:21.456Z,54.59
2022-10-29T08:48:11.468Z,52.94
2022-10-29T08:50:41.999Z,52.76
2022-10-29T08:53:23.439Z,52.07
2022-10-29T08:55:52.389Z,52.35
2022-10-29T08:58:25.341Z,51.04
2022-10-29T09:00:57.516Z,50.82
2022-10-29T09:03:26.195Z,51.60
2022-10-29T09:06:01.522Z,51.96
2022-10-29T09:08:38.820Z,51.97
2022-10-29T09:11:17.240Z,51.65
2022-10-29T09:13:50.809Z,51.48
2022-10-29T09:16:37.847Z,52.43
2022-10-29T09:19:29.876Z,51.44
2022-10-29T09:22:03.573Z,50.77
2022-10-29T09:24:36.152Z,49.35
2022-10-29T09:27:10.785Z,48.99
2022-10-29T09:29:59.579Z,48.78
2022-10-29T09:32:31.806Z,48.33
2022-10-29T09:35:03.196Z,47.56
2022-10-29T09:37:37.182Z,48.17
2022-10-29T09:40:07.812Z,47.99
2022-10-29T09:42:38.106Z,47.93
2022-10-29T09:45:09.446Z,47.79
2022-10-29T09:47:44.017Z,47.31
2022-10-29T09:50:18.058Z,46.74
2022-10-29T09:52:47.070Z,46.40
2022-10-29T09:55:19.943Z,46.26
2022-10-29T09:57:49.686Z,45.99
2022-10-29T10:00:21.856Z,45.23
2022-10-29T10:02:55.818Z,44.26
2022-10-29T10:05:27.353Z,44.55
2022-10-29T10:08:10.775Z,42.98
2022-10-29T10:10:51.197Z,43.24
2022-10-29T10:13:21.779Z,43.06
2022-10-29T10:15:55.186Z,42.08
2022-10-29T10:18:25.129Z,41.08
2022-10-29T10:21:03.234Z,40.37
2022-10-29T10:23:32.095Z,40.84
2022-10-29T10:26:03.772Z,40.81
2022-10-29T10:28:34.465Z,40.79
2022-10-29T10:31:07.112Z,40.59
2022-10-29T10:33:36.486Z,41.24
2022-10-29T10:36:05.513Z,40.84
2022-10-29T10:38:38.792Z,40.45
2022-10-29T10:41:06.787Z,39.90
2022-10-29T10:43:34.517Z,39.87
2022-10-29T10:46:05.491Z,38.69
2022-10-29T10:48:34.165Z,39.40
2022-10-29T10:51:14.980Z,39.08
2022-10-29T10:53:42.622Z,38.37
2022-10-29T10:56:16.209Z,38.49
2022-10-29T10:58:45.026Z,38.05
2022-10-29T11:01:13.530Z,37.54
2022-10-29T11:03:42.296Z,37.84
2022-10-29T11:06:11.395Z,38.32
2022-10-29T11:08:42.089Z,39.89
2022-10-29T11:11:11.288Z,41.16
2022-10-29T11:13:39.988Z,41.15
2022-10-29T11:16:08.966Z,40.69
2022-10-29T11:18:37.542Z,40.30
2022-10-29T11:21:06.671Z,39.01
2022-10-29T11:23:37.041Z,37.79
2022-10-29T11:26:07.975Z,35.88
2022-10-29T11:28:39.800Z,34.80
2022-10-29T11:31:13.882Z,35.70
2022-10-29T11:33:47.196Z,34.79
2022-10-29T11:36:18.577Z,34.58
2022-10-29T11:38:49.348Z,35.50
2022-10-29T11:41:24.610Z,35.96
2022-10-29T11:43:52.714Z,36.72
2022-10-29T11:46:27.911Z,37.38
2022-10-29T11:49:04.093Z,37.29
2022-10-29T11:51:36.875Z,35.36
2022-10-29T11:54:09.341Z,35.96
2022-10-29T11:56:48.580Z,36.37
2022-10-29T11:59:23.961Z,35.97
2022-10-29T12:01:59.020Z,35.28
2022-10-29T12:04:32.338Z,36.16
2022-10-29T12:07:15.517Z,35.34
2022-10-29T12:10:02.693Z,35.15
2022-10-29T12:12:38.317Z,34.89
2022-10-29T12:15:14.951Z,34.25
2022-10-29T12:17:46.640Z,33.93
2022-10-29T12:20:22.149Z,33.84
2022-10-29T12:23:02.559Z,31.58
2022-10-29T12:25:40.510Z,32.75
2022-10-29T12:28:19.225Z,32.73
2022-10-29T12:30:55.819Z,33.31
2022-10-29T12:33:26.197Z,33.98
2022-10-29T12:35:59.244Z,34.04
2022-10-29T12:38:37.063Z,33.23
2022-10-29T12:41:07.389Z,32.58
2022-10-29T12:43:37.421Z,31.52
2022-10-29T12:46:19.881Z,33.01
2022-10-29T12:48:57.416Z,34.01
2022-10-29T12:51:29.543Z,34.88
2022-10-29T12:54:17.433Z,34.55
2022-10-29T12:56:47.911Z,35.04
2022-10-29T12:59:34.728Z,34.42
2022-10-29T13:02:24.091Z,34.78
2022-10-29T13:05:14.920Z,34.63
2022-10-29T13:08:20.077Z,35.16
2022-10-29T13:10:52.880Z,34.80
2022-10-29T13:13:27.366Z,33.34
2022-10-29T13:16:02.295Z,32.46
2022-10-29T13:18:33.971Z,31.94
2022-10-29T13:21:04.309Z,32.44
2022-10-29T13:23:35.000Z,32.09
2022-10-29T13:26:03.630Z,32.65
2022-10-29T13:29:01.537Z,32.51
2022-10-29T13:31:50.388Z,31.96
2022-10-29T13:34:51.570Z,32.12
2022-10-29T13:37:39.620Z,32.17
2022-10-29T13:40:47.249Z,31.76
2022-10-29T13:43:19.807Z,33.24
2022-10-29T13:45:51.412Z,32.59
2022-10-29T13:48:26.500Z,33.20
2022-10-29T13:50:56.421Z,34.26
2022-10-29T13:53:28.691Z,34.76
2022-10-29T13:55:57.020Z,35.65
2022-10-29T13:58:29.298Z,35.76
2022-10-29T14:00:58.485Z,35.92
2022-10-29T14:03:32.453Z,35.81
2022-10-29T14:06:01.943Z,33.17
2022-10-29T14:08:36.541Z,34.09
2022-10-29T14:11:10.368Z,34.57
2022-10-29T14:13:45.614Z,35.19
2022-10-29T14:16:15.370Z,35.03
2022-10-29T14:18:45.573Z,34.48
2022-10-29T14:21:15.675Z,34.54
2022-10-29T14:23:56.134Z,33.00
2022-10-29T14:26:24.864Z,33.32
2022-10-29T14:28:53.231Z,32.02
2022-10-29T14:31:22.634Z,31.50
2022-10-29T14:33:56.756Z,30.90
2022-10-29T14:36:30.386Z,30.36
2022-10-29T14:39:00.672Z,30.70
2022-10-29T14:41:30.014Z,32.99
2022-10-29T14:44:04.696Z,34.18
2022-10-29T14:46:34.977Z,34.11
2022-10-29T14:49:12.795Z,33.62
2022-10-29T14:51:42.013Z,33.67
2022-10-29T14:54:17.652Z,33.46
2022-10-29T14:56:46.328Z,34.09
2022-10-29T14:59:21.691Z,34.73
2022-10-29T15:01:56.727Z,34.85
2022-10-29T15:04:31.469Z,35.25
2022-10-29T15:07:23.477Z,35.78
2022-10-29T15:09:52.048Z,36.63
2022-10-29T15:12:22.395Z,37.21
2022-10-29T15:14:51.828Z,37.34
2022-10-29T15:17:22.939Z,38.25
2022-10-29T15:19:54.269Z,38.42
2022-10-29T15:22:26.957Z,38.39
2022-10-29T15:24:56.032Z,38.62
2022-10-29T15:27:24.376Z,39.17
2022-10-29T15:29:53.439Z,39.54
2022-10-29T15:32:22.740Z,38.87
2022-10-29T15:34:54.180Z,39.28
2022-10-29T15:37:25.505Z,39.57
2022-10-29T15:40:12.246Z,39.45
2022-10-29T15:42:40.296Z,39.95
2022-10-29T15:45:19.536Z,40.53
2022-10-29T15:47:49.360Z,40.68
2022-10-29T15:50:20.906Z,40.97
2022-10-29T15:52:53.514Z,41.08
2022-10-29T15:55:26.764Z,41.04
2022-10-29T15:57:57.052Z,41.28
2022-10-29T16:00:25.182Z,41.77
2022-10-29T16:02:53.135Z,42.22
2022-10-29T16:05:22.340Z,42.33
2022-10-29T16:07:50.315Z,42.68
2022-10-29T16:10:20.651Z,42.93
2022-10-29T16:12:49.658Z,43.48
2022-10-29T16:15:19.250Z,44.32
2022-10-29T16:17:47.931Z,44.70
2022-10-29T16:20:17.248Z,45.61
2022-10-29T16:22:47.042Z,45.67
2022-10-29T16:25:22.783Z,45.59
2022-10-29T16:27:50.977Z,46.37
2022-10-29T16:30:19.859Z,46.29
2022-10-29T16:32:49.822Z,46.35
2022-10-29T16:35:20.740Z,46.01
2022-10-29T16:37:50.739Z,44.90
2022-10-29T16:40:19.382Z,44.42
2022-10-29T16:42:47.688Z,44.36
2022-10-29T16:45:17.377Z,43.94
2022-10-29T16:47:45.314Z,43.37
2022-10-29T16:50:21.007Z,43.38
2022-10-29T16:52:57.701Z,43.37
2022-10-29T16:55:25.659Z,43.83
2022-10-29T16:57:53.604Z,44.30
2022-10-29T17:00:22.151Z,44.59
2022-10-29T17:02:49.992Z,45.38
2022-10-29T17:05:18.155Z,46.05
2022-10-29T17:07:45.932Z,46.67
2022-10-29T17:10:15.202Z,46.67
2022-10-29T17:12:43.009Z,46.50
2022-10-29T17:15:11.411Z,46.73
2022-10-29T17:17:42.387Z,46.10
2022-10-29T17:20:13.316Z,46.34
2022-10-29T17:22:41.255Z,45.88
2022-10-29T17:25:10.569Z,44.63
2022-10-29T17:27:40.612Z,44.36
2022-10-29T17:30:10.427Z,44.80
2022-10-29T17:32:38.394Z,45.05
2022-10-29T17:35:07.023Z,45.06
2022-10-29T17:37:34.915Z,44.94
2022-10-29T17:40:06.782Z,44.74
2022-10-29T17:42:36.121Z,44.52
2022-10-29T17:45:06.140Z,44.53
2022-10-29T17:47:34.087Z,44.97
2022-10-29T17:50:01.968Z,45.83
2022-10-29T17:52:29.890Z,45.19
2022-10-29T17:54:57.742Z,45.72
2022-10-29T17:57:25.616Z,45.38
2022-10-29T17:59:53.459Z,46.58
2022-10-29T18:02:22.914Z,46.36
2022-10-29T18:04:50.944Z,46.24
2022-10-29T18:07:19.070Z,45.94
2022-10-29T18:09:46.963Z,45.65
2022-10-29T18:12:14.784Z,45.39
2022-10-29T18:14:42.706Z,45.86
2022-10-29T18:17:10.591Z,44.83
2022-10-29T18:19:39.847Z,44.14
2022-10-29T18:22:07.802Z,44.21
2022-10-29T18:24:35.703Z,43.29
2022-10-29T18:27:03.601Z,43.45
2022-10-29T18:29:31.439Z,42.98
2022-10-29T18:31:59.527Z,43.18
2022-10-29T18:34:27.478Z,43.33
2022-10-29T18:36:56.682Z,42.90
2022-10-29T18:39:24.549Z,42.93
2022-10-29T18:41:52.479Z,41.50
2022-10-29T18:44:20.309Z,41.93
2022-10-29T18:46:48.178Z,42.21
2022-10-29T18:49:16.197Z,41.69
2022-10-29T18:51:44.130Z,42.07
2022-10-29T18:54:14.600Z,41.82
2022-10-29T18:56:42.777Z,41.85
2022-10-29T18:59:11.453Z,41.31
2022-10-29T19:01:39.820Z,41.16
2022-10-29T19:04:12.638Z,41.36
2022-10-29T19:06:40.559Z,40.98
2022-10-29T19:09:10.119Z,40.50
2022-10-29T19:11:39.341Z,40.04
2022-10-29T19:14:08.804Z,40.58
2022-10-29T19:16:36.710Z,40.33
2022-10-29T19:21:35.661Z,39.81
2022-10-29T19:24:03.561Z,39.62
2022-10-29T19:26:34.893Z,39.22
2022-10-29T19:29:05.547Z,39.22
2022-10-29T19:31:34.232Z,38.81
2022-10-29T19:34:05.456Z,38.96
2022-10-29T19:36:34.442Z,38.70
2022-10-29T19:39:02.429Z,39.09
2022-10-29T19:41:30.566Z,39.13
2022-10-29T19:44:01.026Z,38.79
2022-10-29T19:46:30.753Z,38.92
2022-10-29T19:48:59.112Z,38.39
2022-10-29T19:51:26.986Z,38.69
2022-10-29T19:53:57.207Z,38.44
2022-10-29T19:56:25.055Z,38.80
2022-10-29T19:58:52.900Z,38.42
2022-10-29T20:01:20.949Z,38.61
2022-10-29T20:03:50.324Z,38.19
2022-10-29T20:06:18.368Z,38.47
2022-10-29T20:08:46.336Z,38.87
2022-10-29T20:11:14.203Z,38.71
2022-10-29T20:13:42.141Z,38.58
2022-10-29T20:16:10.866Z,38.57
2022-10-29T20:18:39.741Z,38.61
2022-10-29T20:21:09.019Z,38.53
2022-10-29T20:23:37.326Z,38.40
2022-10-29T20:26:05.296Z,38.75
2022-10-29T20:28:33.282Z,38.80
2022-10-29T20:31:15.254Z,39.18
2022-10-29T20:33:43.457Z,38.92
2022-10-29T20:36:12.713Z,39.25
2022-10-29T20:38:40.604Z,39.71
2022-10-29T20:41:08.482Z,39.68
2022-10-29T20:43:36.484Z,39.99
2022-10-29T20:46:04.591Z,40.56
2022-10-29T20:48:32.772Z,40.03
2022-10-29T20:51:00.600Z,39.77
2022-10-29T20:53:29.941Z,39.88
2022-10-29T20:55:57.815Z,39.78
2022-10-29T20:58:25.771Z,39.84
2022-10-29T21:00:53.672Z,40.09
2022-10-29T21:03:21.569Z,39.65
2022-10-29T21:05:49.472Z,39.70
2022-10-29T21:08:17.723Z,39.50
2022-10-29T21:10:46.933Z,39.84
2022-10-29T21:13:14.807Z,39.63
2022-10-29T21:15:42.631Z,38.99
2022-10-29T21:18:10.404Z,39.06
2022-10-29T21:20:38.238Z,38.89
2022-10-29T21:23:06.227Z,39.34
2022-10-29T21:25:34.163Z,39.75
2022-10-29T21:28:03.320Z,39.21
2022-10-29T21:30:31.192Z,40.00
2022-10-29T21:32:59.002Z,39.97
2022-10-29T21:35:26.817Z,40.00
2022-10-29T21:37:54.958Z,40.07
2022-10-29T21:40:23.116Z,39.82
2022-10-29T21:42:50.911Z,40.13
2022-10-29T21:45:20.145Z,40.36
2022-10-29T21:47:49.379Z,39.83
2022-10-29T21:50:17.246Z,40.66
2022-10-29T21:52:45.092Z,40.59
2022-10-29T21:55:12.874Z,39.96
2022-10-29T21:57:43.716Z,40.11
2022-10-29T22:00:13.899Z,40.54
2022-10-29T22:02:43.240Z,40.36
2022-10-29T22:05:11.377Z,40.47
2022-10-29T22:07:39.239Z,40.89
2022-10-29T22:10:07.877Z,41.02
2022-10-29T22:12:35.748Z,41.07
2022-10-29T22:15:04.267Z,41.12
2022-10-29T22:17:32.441Z,40.75
2022-10-29T22:20:01.688Z,41.13
2022-10-29T22:22:29.540Z,41.41
2022-10-29T22:24:57.368Z,41.31
2022-10-29T22:27:25.234Z,41.79
2022-10-29T22:29:54.469Z,41.26
2022-10-29T22:32:22.570Z,41.50
2022-10-29T22:34:50.382Z,41.62
2022-10-29T22:37:19.591Z,41.68
2022-10-29T22:39:47.771Z,41.58
2022-10-29T22:42:16.102Z,42.18
2022-10-29T22:44:43.974Z,41.98
2022-10-29T22:47:11.891Z,42.50
2022-10-29T22:49:39.680Z,42.61
2022-10-29T22:52:07.544Z,42.89
2022-10-29T22:54:36.738Z,42.05
2022-10-29T22:57:04.715Z,42.67
2022-10-29T22:59:32.585Z,42.66
2022-10-29T23:02:00.524Z,42.24
2022-10-29T23:04:28.662Z,42.46
2022-10-29T23:07:01.626Z,42.04
2022-10-29T23:09:29.559Z,42.87
2022-10-29T23:11:58.775Z,42.76
2022-10-29T23:14:26.654Z,42.27
2022-10-29T23:16:54.550Z,42.64
2022-10-29T23:19:22.604Z,42.81
2022-10-29T23:21:50.446Z,42.52
2022-10-29T23:24:18.287Z,42.77
2022-10-29T23:26:46.273Z,42.38
2022-10-29T23:29:15.477Z,42.34
2022-10-29T23:31:43.347Z,42.33
2022-10-29T23:34:12.652Z,42.27
2022-10-29T23:36:40.440Z,42.02
2022-10-29T23:39:08.423Z,42.22
2022-10-29T23:41:36.353Z,42.14
2022-10-29T23:44:04.830Z,42.26
2022-10-29T23:46:34.123Z,42.64
2022-10-29T23:49:01.895Z,41.97
2022-10-29T23:51:29.953Z,41.91
2022-10-29T23:53:57.939Z,42.48
2022-10-29T23:56:26.026Z,42.05
2022-10-29T23:58:53.890Z,42.58
